Time;durP1;ratioP1;P1;durP2;ratioP2;P2;SDS_P1;SDS_P2;PMS_P1;PMS_P2;Temp;Humidity;BMP_temperature;BMP_pressure;BME280_temperature;BME280_humidity;BME280_pressure;Samples;Min_cycle;Max_cycle;Signal;HPM_P1;HPM_P2
2023/12/11 00:00:46;;;;;;;33.63;16.30;;;;;;;8.48;100.00;99849.31;5088104;28;20040;-56
2023/12/11 00:03:11;;;;;;;35.03;16.95;;;;;;;8.43;100.00;99858.50;5077165;28;20130;-57
2023/12/11 00:05:41;;;;;;;36.80;16.63;;;;;;;8.43;100.00;99841.97;5080791;28;20032;-56
2023/12/11 00:08:06;;;;;;;33.90;16.52;;;;;;;8.42;100.00;99835.66;5069168;28;20028;-56
2023/12/11 00:10:32;;;;;;;33.58;16.52;;;;;;;8.41;100.00;99836.78;5070045;28;20029;-57
2023/12/11 00:12:57;;;;;;;30.40;16.13;;;;;;;8.40;100.00;99835.13;5081485;28;20472;-56
2023/12/11 00:15:23;;;;;;;32.80;16.40;;;;;;;8.36;100.00;99836.09;5077519;28;20024;-57
2023/12/11 00:17:48;;;;;;;34.92;17.30;;;;;;;8.38;100.00;99842.91;5085453;28;20024;-57
2023/12/11 00:20:13;;;;;;;36.00;16.83;;;;;;;8.32;100.00;99852.44;5081457;28;20123;-56
2023/12/11 00:22:39;;;;;;;35.38;16.58;;;;;;;8.28;100.00;99848.69;5083319;28;20386;-57
2023/12/11 00:25:05;;;;;;;33.15;17.35;;;;;;;8.25;100.00;99841.06;5080376;28;20115;-56
2023/12/11 00:27:30;;;;;;;32.53;17.17;;;;;;;8.24;100.00;99844.94;5086814;28;20060;-56
2023/12/11 00:29:55;;;;;;;32.53;17.02;;;;;;;8.20;100.00;99843.94;5086223;28;20086;-56
2023/12/11 00:32:21;;;;;;;32.30;16.92;;;;;;;8.19;100.00;99848.66;5077627;28;20067;-57
2023/12/11 00:34:46;;;;;;;31.17;16.88;;;;;;;8.23;100.00;99843.31;5086557;28;20086;-58
2023/12/11 00:37:11;;;;;;;37.53;17.23;;;;;;;8.16;100.00;99843.75;5087044;28;20081;-57
2023/12/11 00:39:37;;;;;;;38.42;17.27;;;;;;;8.15;100.00;99838.56;5088795;28;20024;-57
2023/12/11 00:42:02;;;;;;;34.17;17.25;;;;;;;8.10;100.00;99834.81;5076424;28;20131;-57
2023/12/11 00:44:28;;;;;;;33.45;17.33;;;;;;;8.08;100.00;99828.00;5088182;28;20402;-57
2023/12/11 00:46:53;;;;;;;33.25;16.80;;;;;;;8.05;100.00;99836.88;5078226;28;20412;-56
2023/12/11 00:49:18;;;;;;;34.38;17.33;;;;;;;8.06;100.00;99824.72;5081309;28;20033;-57
2023/12/11 00:51:44;;;;;;;36.35;17.42;;;;;;;8.05;100.00;99831.34;5084148;28;20031;-57
2023/12/11 00:54:09;;;;;;;35.17;17.55;;;;;;;8.04;100.00;99821.47;5081163;28;20096;-56
2023/12/11 00:56:34;;;;;;;35.40;17.60;;;;;;;8.05;100.00;99829.44;5088943;28;20132;-56
2023/12/11 00:59:00;;;;;;;34.97;17.48;;;;;;;8.05;100.00;99836.88;5073474;28;20036;-57
2023/12/11 01:01:25;;;;;;;33.08;17.40;;;;;;;8.04;100.00;99824.22;5089178;28;20028;-57
2023/12/11 01:03:50;;;;;;;33.80;17.58;;;;;;;8.06;100.00;99821.97;5077324;28;20089;-56
2023/12/11 01:06:16;;;;;;;36.05;18.00;;;;;;;8.08;100.00;99822.47;5078273;28;20455;-57
2023/12/11 01:08:41;;;;;;;37.22;17.52;;;;;;;8.08;100.00;99819.72;5081158;28;20021;-57
2023/12/11 01:11:08;;;;;;;37.38;18.25;;;;;;;8.06;100.00;99811.78;5073346;28;20042;-57
2023/12/11 01:13:33;;;;;;;38.25;17.73;;;;;;;8.09;100.00;99813.09;5077961;28;20036;-58
2023/12/11 01:15:59;;;;;;;35.78;17.73;;;;;;;8.10;100.00;99806.47;5084802;28;20070;-57
2023/12/11 01:18:25;;;;;;;34.42;17.10;;;;;;;8.08;100.00;99805.94;5073432;28;20063;-57
2023/12/11 01:20:51;;;;;;;34.83;17.00;;;;;;;8.12;100.00;99805.00;5072637;28;20032;-57
2023/12/11 01:23:18;;;;;;;38.92;17.05;;;;;;;8.15;100.00;99798.03;5078840;28;20024;-57
2023/12/11 01:25:43;;;;;;;34.92;17.33;;;;;;;8.21;100.00;99796.81;5081820;28;20111;-57
2023/12/11 01:28:09;;;;;;;40.80;17.23;;;;;;;8.24;100.00;99792.59;5080425;28;20171;-57
2023/12/11 01:30:34;;;;;;;37.85;17.73;;;;;;;8.26;100.00;99796.66;5072435;28;20105;-57
2023/12/11 01:32:59;;;;;;;34.53;16.70;;;;;;;8.28;100.00;99794.41;5084762;28;20031;-57
2023/12/11 01:35:25;;;;;;;35.03;17.02;;;;;;;8.28;100.00;99797.16;5071862;28;20064;-56
2023/12/11 01:37:50;;;;;;;37.22;17.58;;;;;;;8.35;100.00;99793.94;5075866;28;20093;-57
2023/12/11 01:40:15;;;;;;;36.78;17.17;;;;;;;8.41;100.00;99784.41;5076240;28;20455;-57
2023/12/11 01:42:41;;;;;;;31.30;16.95;;;;;;;8.53;100.00;99777.50;5078782;28;20070;-57
2023/12/11 01:45:07;;;;;;;33.65;16.45;;;;;;;8.53;100.00;99780.28;5089047;28;20016;-57
2023/12/11 01:47:32;;;;;;;37.58;17.00;;;;;;;8.57;100.00;99784.00;5090297;28;20028;-57
2023/12/11 01:49:58;;;;;;;36.08;16.92;;;;;;;8.59;100.00;99765.19;5081436;28;20324;-56
2023/12/11 01:52:24;;;;;;;34.05;16.48;;;;;;;8.56;100.00;99777.69;5092647;28;20028;-56
2023/12/11 01:54:50;;;;;;;33.97;16.15;;;;;;;8.57;100.00;99765.53;5074401;28;20464;-57
2023/12/11 01:57:16;;;;;;;35.20;16.25;;;;;;;8.61;100.00;99768.47;5075391;28;20044;-56
2023/12/11 01:59:42;;;;;;;31.85;16.65;;;;;;;8.64;100.00;99765.06;5087199;28;20036;-56
2023/12/11 02:02:07;;;;;;;33.45;16.70;;;;;;;8.65;100.00;99754.84;5079094;28;20522;-56
2023/12/11 02:04:33;;;;;;;30.52;15.60;;;;;;;8.68;100.00;99752.25;5083361;28;20459;-57
2023/12/11 02:06:58;;;;;;;33.78;16.58;;;;;;;8.74;100.00;99752.91;5092022;28;20464;-56
2023/12/11 02:09:27;;;;;;;32.88;16.67;;;;;;;8.77;100.00;99745.94;5074470;28;20060;-57
2023/12/11 02:11:53;;;;;;;33.20;16.90;;;;;;;8.80;100.00;99737.03;5075643;28;20024;-57
2023/12/11 02:14:18;;;;;;;36.58;17.20;;;;;;;8.86;100.00;99735.75;5076247;28;20085;-57
2023/12/11 02:16:44;;;;;;;30.48;16.52;;;;;;;8.86;100.00;99738.50;5076124;28;20039;-57
2023/12/11 02:19:09;;;;;;;37.83;17.60;;;;;;;8.88;100.00;99742.56;5079646;28;20035;-58
2023/12/11 02:21:35;;;;;;;33.70;17.00;;;;;;;8.89;100.00;99740.63;5071800;28;20028;-55
2023/12/11 02:24:14;;;;;;;35.67;16.85;;;;;;;8.87;100.00;99738.19;5078043;28;20032;-55
2023/12/11 02:26:40;;;;;;;35.08;16.70;;;;;;;8.90;100.00;99733.97;5091714;28;20024;-55
2023/12/11 02:29:05;;;;;;;32.75;16.65;;;;;;;8.93;100.00;99727.00;5083546;28;20036;-55
2023/12/11 02:31:31;;;;;;;37.28;17.10;;;;;;;8.91;100.00;99719.06;5091572;28;20367;-54
2023/12/11 02:33:56;;;;;;;30.80;16.30;;;;;;;8.93;100.00;99719.53;5079153;28;20033;-54
2023/12/11 02:36:21;;;;;;;30.63;16.00;;;;;;;8.93;100.00;99721.47;5071166;28;20029;-55
2023/12/11 02:38:47;;;;;;;35.08;16.15;;;;;;;8.93;100.00;99716.75;5077906;28;20333;-55
2023/12/11 02:41:12;;;;;;;37.60;16.73;;;;;;;8.92;100.00;99712.41;5085740;28;20048;-55
2023/12/11 02:43:37;;;;;;;34.53;15.88;;;;;;;8.96;100.00;99704.28;5083269;28;20025;-55
2023/12/11 02:46:03;;;;;;;28.35;16.30;;;;;;;9.01;100.00;99707.72;5085000;28;20028;-55
2023/12/11 02:48:29;;;;;;;33.08;16.88;;;;;;;9.00;100.00;99705.25;5079498;28;20384;-55
2023/12/11 02:50:54;;;;;;;35.08;16.58;;;;;;;8.95;100.00;99695.19;5082054;28;20029;-57
2023/12/11 02:53:20;;;;;;;36.90;16.73;;;;;;;8.97;100.00;99686.63;5074345;28;20475;-56
2023/12/11 02:55:45;;;;;;;32.50;17.00;;;;;;;8.92;100.00;99679.31;5076399;28;20033;-56
2023/12/11 02:58:11;;;;;;;32.00;16.05;;;;;;;8.92;100.00;99687.59;5071152;28;21105;-56
2023/12/11 03:00:36;;;;;;;33.35;17.10;;;;;;;8.90;100.00;99689.84;5074094;28;20737;-56
2023/12/11 03:03:02;;;;;;;31.23;16.25;;;;;;;8.95;100.00;99688.88;5087559;28;20039;-55
2023/12/11 03:05:27;;;;;;;34.15;16.63;;;;;;;8.89;100.00;99677.19;5071647;28;20032;-56
2023/12/11 03:07:52;;;;;;;31.80;16.83;;;;;;;8.87;100.00;99666.50;5070979;28;20384;-56
2023/12/11 03:10:18;;;;;;;34.60;16.60;;;;;;;8.88;100.00;99657.06;5084982;28;20468;-56
2023/12/11 03:12:43;;;;;;;28.58;16.27;;;;;;;8.85;100.00;99654.13;5089413;28;20487;-56
2023/12/11 03:15:09;;;;;;;28.80;16.55;;;;;;;8.79;100.00;99659.00;5088336;28;20024;-56
2023/12/11 03:17:35;;;;;;;28.88;16.25;;;;;;;8.73;100.00;99663.06;5081609;28;20037;-56
2023/12/11 03:20:00;;;;;;;33.83;16.48;;;;;;;8.70;100.00;99678.31;5081551;28;20074;-56
2023/12/11 03:22:26;;;;;;;29.55;16.92;;;;;;;8.65;100.00;99666.63;5090502;28;20039;-56
2023/12/11 03:24:52;;;;;;;31.92;17.65;;;;;;;8.64;100.00;99667.75;5088941;28;20032;-56
2023/12/11 03:27:19;;;;;;;31.38;17.10;;;;;;;8.61;100.00;99665.63;5090674;28;20043;-55
2023/12/11 03:29:45;;;;;;;35.50;17.45;;;;;;;8.58;100.00;99656.88;5077759;28;20037;-56
2023/12/11 03:32:11;;;;;;;31.40;17.13;;;;;;;8.56;100.00;99653.63;5081960;28;20024;-56
2023/12/11 03:34:36;;;;;;;28.95;16.73;;;;;;;8.56;100.00;99650.88;5074873;28;20107;-57
2023/12/11 03:37:01;;;;;;;34.80;16.90;;;;;;;8.56;100.00;99645.38;5071977;28;20036;-57
2023/12/11 03:39:27;;;;;;;33.22;16.58;;;;;;;8.55;100.00;99642.91;5073327;28;20033;-56
2023/12/11 03:41:52;;;;;;;32.35;16.67;;;;;;;8.52;100.00;99649.88;5070874;28;20048;-56
2023/12/11 03:44:18;;;;;;;33.45;17.50;;;;;;;8.51;100.00;99642.75;5077728;28;20108;-56
2023/12/11 03:46:43;;;;;;;36.13;17.88;;;;;;;8.51;100.00;99641.94;5070814;28;20028;-57
2023/12/11 03:49:09;;;;;;;29.48;17.27;;;;;;;8.48;100.00;99645.34;5079314;28;20064;-57
2023/12/11 03:51:34;;;;;;;32.72;17.40;;;;;;;8.48;100.00;99639.81;5072573;28;20032;-56
2023/12/11 03:54:02;;;;;;;25.98;16.45;;;;;;;8.49;100.00;99636.78;5070111;28;20494;-57
2023/12/11 03:56:28;;;;;;;30.25;16.65;;;;;;;8.58;100.00;99636.75;5073407;28;20032;-56
2023/12/11 03:58:53;;;;;;;27.90;16.17;;;;;;;8.64;100.00;99640.19;5088760;28;20040;-57
2023/12/11 04:01:19;;;;;;;30.73;16.17;;;;;;;8.61;100.00;99633.38;5076453;28;20016;-56
2023/12/11 04:03:44;;;;;;;28.40;16.63;;;;;;;8.70;100.00;99634.19;5083099;28;20447;-57
2023/12/11 04:06:09;;;;;;;25.35;15.90;;;;;;;8.66;100.00;99627.69;5095119;28;20071;-58
2023/12/11 04:08:40;;;;;;;31.33;17.73;;;;;;;8.70;100.00;99636.94;5092671;28;20036;-57
2023/12/11 04:11:05;;;;;;;31.02;16.45;;;;;;;8.70;100.00;99642.47;5078507;28;20029;-58
2023/12/11 04:13:30;;;;;;;33.42;16.13;;;;;;;8.71;100.00;99635.81;5091308;28;20023;-57
2023/12/11 04:15:56;;;;;;;29.15;16.08;;;;;;;8.71;100.00;99644.09;5094165;28;20399;-57
2023/12/11 04:18:21;;;;;;;30.35;15.98;;;;;;;8.73;100.00;99641.00;5086423;28;20024;-57
2023/12/11 04:20:46;;;;;;;29.83;16.25;;;;;;;8.69;100.00;99640.84;5088368;28;20073;-57
2023/12/11 04:23:12;;;;;;;30.48;16.13;;;;;;;8.74;100.00;99643.44;5073487;28;20029;-55
2023/12/11 04:25:37;;;;;;;30.45;15.95;;;;;;;8.71;100.00;99640.50;5086490;28;20036;-54
2023/12/11 04:28:03;;;;;;;25.63;16.20;;;;;;;8.69;100.00;99632.56;5074832;28;20024;-56
2023/12/11 04:30:28;;;;;;;28.00;15.77;;;;;;;8.66;100.00;99622.19;5073903;28;20061;-55
2023/12/11 04:32:53;;;;;;;26.63;15.23;;;;;;;8.70;100.00;99619.56;5073555;28;20341;-56
2023/12/11 04:35:19;;;;;;;30.20;16.20;;;;;;;8.66;100.00;99627.69;5074964;28;20032;-56
2023/12/11 04:37:44;;;;;;;29.60;17.00;;;;;;;8.68;100.00;99622.66;5073457;28;20027;-55
2023/12/11 04:40:10;;;;;;;29.30;17.00;;;;;;;8.70;100.00;99619.56;5082392;28;20089;-56
2023/12/11 04:42:35;;;;;;;29.52;16.17;;;;;;;8.72;100.00;99617.31;5083733;28;20123;-55
2023/12/11 04:45:00;;;;;;;27.80;16.10;;;;;;;8.73;100.00;99621.69;5082408;28;20115;-56
2023/12/11 04:47:26;;;;;;;31.77;16.60;;;;;;;8.70;100.00;99608.53;5072252;28;20037;-56
2023/12/11 04:49:51;;;;;;;35.40;17.30;;;;;;;8.70;100.00;99611.31;5076153;28;20086;-56
2023/12/11 04:52:17;;;;;;;29.67;16.13;;;;;;;8.68;100.00;99608.09;5074023;28;20028;-57
2023/12/11 04:54:42;;;;;;;32.10;16.52;;;;;;;8.65;100.00;99605.97;5084284;28;20500;-55
2023/12/11 04:57:08;;;;;;;29.45;16.60;;;;;;;8.65;100.00;99614.22;5081353;28;20039;-56
2023/12/11 04:59:33;;;;;;;31.98;16.90;;;;;;;8.60;100.00;99619.91;5090822;28;20529;-57
2023/12/11 05:01:58;;;;;;;30.05;16.75;;;;;;;8.55;100.00;99613.41;5080210;28;20559;-55
2023/12/11 05:04:23;;;;;;;27.63;16.25;;;;;;;8.53;100.00;99606.63;5073611;28;20492;-56
2023/12/11 05:06:49;;;;;;;36.92;17.05;;;;;;;8.52;100.00;99611.28;5073518;28;20543;-60
2023/12/11 05:09:14;;;;;;;29.92;16.42;;;;;;;8.51;100.00;99612.44;5073316;28;20562;-56
2023/12/11 05:11:40;;;;;;;31.08;16.63;;;;;;;8.48;100.00;99620.53;5088478;28;20074;-56
2023/12/11 05:14:05;;;;;;;28.05;16.92;;;;;;;8.49;100.00;99620.22;5078374;28;20050;-55
2023/12/11 05:16:30;;;;;;;33.30;17.63;;;;;;;8.49;100.00;99624.91;5080484;28;20031;-56
2023/12/11 05:18:56;;;;;;;27.92;16.17;;;;;;;8.48;100.00;99613.09;5081631;28;20084;-55
2023/12/11 05:21:22;;;;;;;30.75;16.20;;;;;;;8.43;100.00;99605.75;5084463;28;20024;-54
2023/12/11 05:23:47;;;;;;;28.42;16.23;;;;;;;8.51;100.00;99612.44;5093365;28;20031;-56
2023/12/11 05:26:19;;;;;;;29.60;17.38;;;;;;;8.51;100.00;99623.44;5082961;28;20387;-55
2023/12/11 05:28:44;;;;;;;28.38;16.20;;;;;;;8.50;100.00;99605.28;5093807;28;20108;-57
2023/12/11 05:31:09;;;;;;;30.35;16.90;;;;;;;8.49;100.00;99628.50;5093318;28;20409;-56
2023/12/11 05:33:35;;;;;;;29.23;16.90;;;;;;;8.57;100.00;99619.44;5089678;28;20063;-56
2023/12/11 05:36:00;;;;;;;34.58;17.15;;;;;;;8.53;100.00;99615.69;5079836;28;20062;-56
2023/12/11 05:38:25;;;;;;;29.85;16.83;;;;;;;8.57;100.00;99616.66;5079122;28;20039;-56
2023/12/11 05:40:51;;;;;;;33.05;17.48;;;;;;;8.56;100.00;99605.94;5090294;28;20545;-56
2023/12/11 05:43:16;;;;;;;29.40;17.40;;;;;;;8.59;100.00;99613.56;5092654;28;20478;-55
2023/12/11 05:45:41;;;;;;;31.92;16.48;;;;;;;8.63;100.00;99613.75;5084357;28;20491;-56
2023/12/11 05:48:07;;;;;;;31.35;17.13;;;;;;;8.63;100.00;99608.22;5072440;28;20058;-56
2023/12/11 05:50:33;;;;;;;30.85;17.23;;;;;;;8.62;100.00;99612.94;5071965;28;20367;-56
2023/12/11 05:52:58;;;;;;;28.50;16.65;;;;;;;8.64;100.00;99605.16;5072312;28;20032;-56
2023/12/11 05:55:23;;;;;;;32.88;16.40;;;;;;;8.64;100.00;99605.16;5076473;28;20471;-56
2023/12/11 05:57:49;;;;;;;30.70;16.80;;;;;;;8.63;100.00;99598.03;5089913;28;20024;-56
2023/12/11 06:00:14;;;;;;;29.30;16.58;;;;;;;8.64;100.00;99598.81;5083272;28;20081;-56
2023/12/11 06:02:40;;;;;;;32.10;17.50;;;;;;;8.63;100.00;99598.03;5089239;28;20064;-57
2023/12/11 06:05:06;;;;;;;33.28;17.40;;;;;;;8.64;100.00;99591.38;5091273;28;20043;-56
2023/12/11 06:07:32;;;;;;;29.67;16.67;;;;;;;8.64;100.00;99593.31;5085239;28;20503;-56
2023/12/11 06:09:57;;;;;;;28.80;16.48;;;;;;;8.64;100.00;99587.78;5086199;28;20039;-56
2023/12/11 06:12:22;;;;;;;27.00;15.27;;;;;;;8.66;100.00;99600.13;5082194;28;20024;-56
2023/12/11 06:14:48;;;;;;;30.10;15.80;;;;;;;8.67;100.00;99600.94;5072466;28;20031;-57
2023/12/11 06:17:13;;;;;;;28.60;15.75;;;;;;;8.68;100.00;99606.13;5081378;28;20032;-57
2023/12/11 06:19:44;;;;;;;30.80;16.20;;;;;;;8.71;100.00;99601.91;5090524;28;20026;-57
2023/12/11 06:22:10;;;;;;;29.05;15.45;;;;;;;8.67;100.00;99601.75;5091607;28;20074;-56
2023/12/11 06:24:38;;;;;;;29.77;15.93;;;;;;;8.68;100.00;99619.13;5082003;28;20475;-56
2023/12/11 06:27:04;;;;;;;29.92;16.92;;;;;;;8.68;100.00;99624.63;5072890;28;20028;-57
2023/12/11 06:29:29;;;;;;;28.45;15.85;;;;;;;8.68;100.00;99602.56;5072258;28;20112;-57
2023/12/11 06:31:54;;;;;;;31.10;17.58;;;;;;;8.65;100.00;99601.25;5072217;28;20117;-57
2023/12/11 06:34:20;;;;;;;31.80;16.08;;;;;;;8.63;100.00;99602.72;5078831;28;20037;-56
2023/12/11 06:36:45;;;;;;;26.45;15.80;;;;;;;8.63;100.00;99597.19;5088444;28;20024;-56
2023/12/11 06:39:11;;;;;;;29.20;15.65;;;;;;;8.61;100.00;99597.53;5091963;28;20032;-56
2023/12/11 06:41:36;;;;;;;31.38;16.88;;;;;;;8.61;100.00;99607.72;5080886;28;20395;-56
2023/12/11 06:44:01;;;;;;;30.20;16.17;;;;;;;8.61;100.00;99596.72;5071804;28;20025;-60
2023/12/11 06:46:29;;;;;;;27.45;15.88;;;;;;;8.61;100.00;99614.06;5071501;28;20090;-57
2023/12/11 06:48:57;;;;;;;30.83;16.52;;;;;;;8.60;100.00;99609.69;5071736;28;20025;-57
2023/12/11 06:51:24;;;;;;;28.75;15.82;;;;;;;8.64;100.00;99599.66;5082936;28;20225;-57
2023/12/11 06:53:50;;;;;;;25.70;15.07;;;;;;;8.63;100.00;99605.47;5071905;28;20112;-56
2023/12/11 06:56:19;;;;;;;28.45;15.63;;;;;;;8.62;100.00;99623.97;5077337;28;20363;-56
2023/12/11 06:58:47;;;;;;;27.35;15.85;;;;;;;8.61;100.00;99599.47;5070663;28;20028;-55
2023/12/11 07:01:13;;;;;;;29.65;15.48;;;;;;;8.55;100.00;99624.44;5070452;28;20069;-57
2023/12/11 07:03:40;;;;;;;28.92;15.30;;;;;;;8.55;100.00;99618.94;5085572;28;20020;-56
2023/12/11 07:06:06;;;;;;;27.63;15.98;;;;;;;8.54;100.00;99616.50;5085329;28;20036;-56
2023/12/11 07:08:31;;;;;;;29.35;15.40;;;;;;;8.55;100.00;99624.44;5070460;28;20096;-56
2023/12/11 07:10:57;;;;;;;31.45;15.57;;;;;;;8.55;100.00;99629.97;5078820;28;20036;-56
2023/12/11 07:13:22;;;;;;;27.45;15.63;;;;;;;8.54;100.00;99622.81;5071981;28;20029;-57
2023/12/11 07:15:47;;;;;;;28.98;16.05;;;;;;;8.57;100.00;99638.72;5070623;28;20545;-56
2023/12/11 07:18:13;;;;;;;32.55;16.23;;;;;;;8.54;100.00;99641.31;5070732;28;20444;-57
2023/12/11 07:20:41;;;;;;;28.52;14.95;;;;;;;8.53;100.00;99642.44;5087543;28;20029;-56
2023/12/11 07:23:07;;;;;;;29.90;15.63;;;;;;;8.55;100.00;99642.91;5089981;28;20124;-57
2023/12/11 07:25:33;;;;;;;27.55;15.52;;;;;;;8.56;100.00;99650.06;5071618;28;20028;-56
2023/12/11 07:27:59;;;;;;;27.50;15.90;;;;;;;8.55;100.00;99654.78;5071742;28;20545;-55
2023/12/11 07:30:24;;;;;;;26.92;15.45;;;;;;;8.54;100.00;99646.84;5074856;28;20036;-55
2023/12/11 07:32:50;;;;;;;27.50;15.50;;;;;;;8.55;100.00;99662.22;5089918;28;20040;-56
2023/12/11 07:35:15;;;;;;;29.63;15.65;;;;;;;8.53;100.00;99642.44;5074996;28;20805;-55
2023/12/11 07:37:42;;;;;;;28.10;16.15;;;;;;;8.50;100.00;99648.59;5089901;28;20075;-56
2023/12/11 07:40:08;;;;;;;26.77;16.42;;;;;;;8.46;100.00;99664.94;5089086;28;20085;-55
2023/12/11 07:42:33;;;;;;;28.23;16.27;;;;;;;8.46;100.00;99659.41;5077104;28;20079;-56
2023/12/11 07:44:59;;;;;;;30.95;16.40;;;;;;;8.41;100.00;99656.81;5082168;28;20074;-56
2023/12/11 07:47:25;;;;;;;26.65;16.60;;;;;;;8.42;100.00;99672.22;5079481;28;20028;-56
2023/12/11 07:49:51;;;;;;;28.38;15.88;;;;;;;8.42;100.00;99667.53;5070991;28;20024;-55
2023/12/11 07:52:16;;;;;;;29.45;16.13;;;;;;;8.45;100.00;99682.59;5085826;28;20024;-56
2023/12/11 07:54:41;;;;;;;27.65;15.43;;;;;;;8.47;100.00;99674.84;5071062;28;20028;-56
2023/12/11 07:57:07;;;;;;;29.50;18.23;;;;;;;8.49;100.00;99678.13;5078179;28;20063;-56
2023/12/11 07:59:32;;;;;;;28.70;16.17;;;;;;;8.51;100.00;99686.84;5075713;28;20448;-56
2023/12/11 08:01:57;;;;;;;28.15;15.90;;;;;;;8.57;100.00;99682.00;5079697;28;20046;-57
2023/12/11 08:04:23;;;;;;;29.85;16.55;;;;;;;8.57;100.00;99693.84;5077592;28;20025;-57
2023/12/11 08:06:50;;;;;;;24.02;14.85;;;;;;;8.66;100.00;99701.31;5069631;28;20028;-57
2023/12/11 08:09:15;;;;;;;25.50;16.02;;;;;;;8.63;100.00;99694.53;5070013;28;20045;-58
2023/12/11 08:11:40;;;;;;;31.83;18.65;;;;;;;8.67;100.00;99698.25;5069789;28;20444;-57
2023/12/11 08:14:06;;;;;;;25.88;14.98;;;;;;;8.65;100.00;99721.75;5065663;28;20029;-57
2023/12/11 08:16:31;;;;;;;27.45;15.23;;;;;;;8.65;100.00;99722.56;5048423;28;20742;-57
2023/12/11 08:18:57;;;;;;;27.75;15.13;;;;;;;8.61;100.00;99723.53;5049919;28;20512;-56
2023/12/11 08:21:23;;;;;;;23.42;14.73;;;;;;;8.61;100.00;99721.59;5049868;28;20345;-56
2023/12/11 08:23:48;;;;;;;25.05;14.95;;;;;;;8.58;100.00;99742.34;5049866;28;20028;-57
2023/12/11 08:26:18;;;;;;;26.30;15.63;;;;;;;8.55;100.00;99744.91;5055179;28;20023;-56
2023/12/11 08:28:44;;;;;;;25.60;15.25;;;;;;;8.52;100.00;99749.13;5068518;28;20135;-55
2023/12/11 08:31:09;;;;;;;26.13;15.15;;;;;;;8.52;100.00;99767.63;5069789;28;20037;-55
2023/12/11 08:33:35;;;;;;;30.40;15.60;;;;;;;8.49;100.00;99780.09;5070056;28;20120;-57
2023/12/11 08:36:00;;;;;;;24.52;16.10;;;;;;;8.53;100.00;99785.78;5070196;28;20417;-56
2023/12/11 08:38:26;;;;;;;25.05;16.20;;;;;;;8.45;100.00;99784.56;5069774;28;20028;-56
2023/12/11 08:40:52;;;;;;;27.65;15.65;;;;;;;8.43;100.00;99797.84;5069574;28;20052;-56
2023/12/11 08:43:17;;;;;;;27.38;15.23;;;;;;;8.42;100.00;99802.56;5081879;28;20044;-55
2023/12/11 08:45:43;;;;;;;28.63;15.32;;;;;;;8.42;100.00;99799.81;5092538;28;20099;-55
2023/12/11 08:48:08;;;;;;;25.40;15.43;;;;;;;8.47;100.00;99796.13;5080758;28;20482;-56
2023/12/11 08:50:34;;;;;;;26.30;14.27;;;;;;;8.49;100.00;99804.91;5052015;28;20065;-55
2023/12/11 08:53:00;;;;;;;27.45;14.23;;;;;;;8.56;100.00;99812.69;5051135;28;20043;-56
2023/12/11 08:55:27;;;;;;;27.80;14.77;;;;;;;8.60;100.00;99810.13;5069894;28;20093;-57
2023/12/11 08:57:53;;;;;;;26.33;14.25;;;;;;;8.61;100.00;99822.78;5088106;28;20444;-53
2023/12/11 09:00:18;;;;;;;22.38;13.68;;;;;;;8.65;100.00;99824.56;5088565;28;20035;-54
2023/12/11 09:02:43;;;;;;;24.50;14.00;;;;;;;8.68;100.00;99818.44;5071059;28;20032;-54
2023/12/11 09:05:09;;;;;;;24.35;14.00;;;;;;;8.72;100.00;99824.13;5071100;28;20039;-54
2023/12/11 09:07:34;;;;;;;19.85;12.77;;;;;;;8.69;100.00;99836.59;5069533;28;20395;-56
2023/12/11 09:10:00;;;;;;;24.15;13.55;;;;;;;8.77;100.00;99831.44;5070765;28;20116;-55
2023/12/11 09:12:26;;;;;;;22.45;13.75;;;;;;;8.80;100.00;99850.91;5085722;28;20066;-56
2023/12/11 09:14:52;;;;;;;24.70;13.80;;;;;;;8.79;100.00;99865.81;5090965;28;20027;-55
2023/12/11 09:17:17;;;;;;;22.48;13.32;;;;;;;8.80;100.00;99847.34;5076899;28;20037;-55
2023/12/11 09:19:43;;;;;;;22.90;13.10;;;;;;;8.83;100.00;99864.06;5070908;28;20446;-56
2023/12/11 09:22:08;;;;;;;24.05;14.30;;;;;;;8.85;100.00;99864.56;5070377;28;20452;-55
2023/12/11 09:24:33;;;;;;;23.02;14.02;;;;;;;8.87;100.00;99880.78;5069679;28;20107;-56
2023/12/11 09:26:59;;;;;;;21.40;13.73;;;;;;;8.90;100.00;99885.69;5069554;28;20388;-55
2023/12/11 09:29:24;;;;;;;21.95;14.05;;;;;;;8.91;100.00;99895.59;5069163;28;20733;-55
2023/12/11 09:31:51;;;;;;;23.67;14.07;;;;;;;8.93;100.00;99906.28;5068818;28;20094;-55
2023/12/11 09:34:17;;;;;;;23.58;13.93;;;;;;;8.98;100.00;99914.41;5068644;28;20048;-55
2023/12/11 09:36:42;;;;;;;25.85;16.48;;;;;;;8.98;100.00;99920.75;5068150;28;20035;-55
2023/12/11 09:39:08;;;;;;;20.50;13.40;;;;;;;8.99;100.00;99927.06;5068915;28;20040;-54
2023/12/11 09:41:34;;;;;;;24.85;14.90;;;;;;;8.96;100.00;99939.56;5066920;28;20055;-56
2023/12/11 09:44:04;;;;;;;23.15;13.90;;;;;;;8.98;100.00;99942.84;5069325;28;20094;-56
2023/12/11 09:46:35;;;;;;;24.25;14.10;;;;;;;8.93;100.00;99948.47;5070221;28;20452;-56
2023/12/11 09:49:01;;;;;;;22.85;14.80;;;;;;;8.91;100.00;99964.53;5070181;28;20029;-56
2023/12/11 09:51:26;;;;;;;23.20;14.80;;;;;;;8.88;100.00;99960.44;5079010;28;20037;-56
2023/12/11 09:53:52;;;;;;;24.17;14.80;;;;;;;8.85;100.00;99971.31;5069677;28;20530;-56
2023/12/11 09:56:18;;;;;;;24.42;14.52;;;;;;;8.82;100.00;99977.47;5081060;28;20498;-54
2023/12/11 09:58:45;;;;;;;22.27;14.38;;;;;;;8.73;100.00;99981.00;5084826;28;20032;-56
2023/12/11 10:01:14;;;;;;;24.90;14.65;;;;;;;8.70;100.00;99989.06;5068526;28;20056;-56
2023/12/11 10:03:40;;;;;;;22.42;13.82;;;;;;;8.62;100.00;99978.78;5068250;28;20043;-55
2023/12/11 10:06:05;;;;;;;25.13;15.00;;;;;;;8.58;100.00;99984.13;5086878;28;20027;-55
2023/12/11 10:08:42;;;;;;;24.33;13.95;;;;;;;8.52;100.00;99999.97;5089871;28;20028;-56
2023/12/11 10:11:09;;;;;;;23.58;14.02;;;;;;;8.42;100.00;99995.50;5072162;28;20090;-56
2023/12/11 10:13:35;;;;;;;23.92;14.25;;;;;;;8.32;100.00;100005.94;5078410;28;20033;-57
2023/12/11 10:16:01;;;;;;;25.75;15.30;;;;;;;8.17;100.00;100018.16;5077691;28;20020;-57
2023/12/11 10:18:26;;;;;;;23.15;15.60;;;;;;;8.13;100.00;100006.91;5081449;28;20054;-57
2023/12/11 10:20:57;;;;;;;19.83;14.57;;;;;;;8.07;100.00;100010.91;5080792;28;20180;-57
2023/12/11 10:23:23;;;;;;;19.88;14.23;;;;;;;7.90;100.00;100011.56;5085826;28;20124;-57
2023/12/11 10:26:09;;;;;;;14.10;2.63;;;;;;;7.89;100.00;100009.91;5079004;28;20566;-57
2023/12/11 10:28:34;;;;;;;9.88;2.03;;;;;;;7.89;100.00;100012.69;5071093;28;20051;-56
2023/12/11 10:31:04;;;;;;;11.38;2.40;;;;;;;7.90;100.00;100015.13;5069471;28;20032;-56
2023/12/11 10:33:33;;;;;;;11.18;2.60;;;;;;;7.96;100.00;100032.38;5088533;28;20039;-57
2023/12/11 10:36:12;;;;;;;9.73;2.33;;;;;;;7.94;100.00;100035.41;5089961;28;20101;-57
2023/12/11 10:38:38;;;;;;;10.05;2.20;;;;;;;7.88;100.00;100044.91;5089947;28;20028;-57
2023/12/11 10:41:05;;;;;;;9.13;2.60;;;;;;;7.87;100.00;100043.28;5088006;28;20150;-56
2023/12/11 10:43:41;;;;;;;11.60;2.15;;;;;;;7.86;100.00;100044.41;5088262;28;20035;-57
2023/12/11 10:46:07;;;;;;;8.20;2.50;;;;;;;7.77;100.00;100051.75;5074307;28;20102;-56
2023/12/11 10:48:34;;;;;;;5.30;2.00;;;;;;;7.78;100.00;100058.91;5067436;28;20032;-57
2023/12/11 10:51:01;;;;;;;10.23;2.30;;;;;;;7.75;100.00;100068.59;5066591;28;20437;-57
2023/12/11 10:53:26;;;;;;;9.45;2.10;;;;;;;7.74;100.00;100063.41;5067181;28;20438;-56
2023/12/11 10:55:55;;;;;;;7.43;2.30;;;;;;;7.73;100.00;100057.06;5067206;28;20036;-56
2023/12/11 10:58:20;;;;;;;7.68;2.20;;;;;;;7.82;100.00;100076.44;5067841;28;20085;-57
2023/12/11 11:00:46;;;;;;;10.35;2.47;;;;;;;7.86;100.00;100077.44;5067409;28;20462;-56
2023/12/11 11:03:13;;;;;;;11.85;2.60;;;;;;;7.87;100.00;100081.03;5067493;28;20543;-57
2023/12/11 11:05:38;;;;;;;11.68;2.45;;;;;;;7.89;100.00;100082.34;5068630;28;20151;-56
2023/12/11 11:08:17;;;;;;;5.82;1.65;;;;;;;7.86;100.00;100085.72;5066528;28;20516;-57
2023/12/11 11:10:50;;;;;;;11.77;2.53;;;;;;;7.86;100.00;100093.97;5068977;28;20024;-57